sensor_id;sensor_type;location;lat;lon;timestamp;P1;durP1;ratioP1;P2;durP2;ratioP2
22677;SDS011;26259;50.214;18.620;2022-07-18T00:00:30;9.47;;;5.70;;
22677;SDS011;26259;50.214;18.620;2022-07-18T00:02:55;7.53;;;5.43;;
22677;SDS011;26259;50.214;18.620;2022-07-18T00:05:21;9.90;;;5.33;;
22677;SDS011;26259;50.214;18.620;2022-07-18T00:07:47;10.87;;;5.17;;
22677;SDS011;26259;50.214;18.620;2022-07-18T00:10:13;9.97;;;5.50;;
22677;SDS011;26259;50.214;18.620;2022-07-18T00:12:38;9.47;;;5.13;;
22677;SDS011;26259;50.214;18.620;2022-07-18T00:15:04;8.03;;;5.07;;
22677;SDS011;26259;50.214;18.620;2022-07-18T00:17:30;7.37;;;5.30;;
22677;SDS011;26259;50.214;18.620;2022-07-18T00:19:56;10.03;;;5.63;;
22677;SDS011;26259;50.214;18.620;2022-07-18T00:22:22;7.13;;;5.50;;
22677;SDS011;26259;50.214;18.620;2022-07-18T00:24:47;6.63;;;5.43;;
22677;SDS011;26259;50.214;18.620;2022-07-18T00:27:13;9.73;;;5.43;;
22677;SDS011;26259;50.214;18.620;2022-07-18T00:29:38;9.70;;;5.80;;
22677;SDS011;26259;50.214;18.620;2022-07-18T00:32:05;8.30;;;5.63;;
22677;SDS011;26259;50.214;18.620;2022-07-18T00:34:32;12.10;;;6.27;;
22677;SDS011;26259;50.214;18.620;2022-07-18T00:36:59;8.67;;;5.77;;
22677;SDS011;26259;50.214;18.620;2022-07-18T00:39:24;9.23;;;5.77;;
22677;SDS011;26259;50.214;18.620;2022-07-18T00:41:50;6.23;;;5.23;;
22677;SDS011;26259;50.214;18.620;2022-07-18T00:44:20;6.53;;;5.40;;
22677;SDS011;26259;50.214;18.620;2022-07-18T00:46:50;6.83;;;5.57;;
22677;SDS011;26259;50.214;18.620;2022-07-18T00:49:17;7.17;;;5.50;;
22677;SDS011;26259;50.214;18.620;2022-07-18T00:51:43;9.60;;;6.03;;
22677;SDS011;26259;50.214;18.620;2022-07-18T00:54:09;7.57;;;5.27;;
22677;SDS011;26259;50.214;18.620;2022-07-18T00:56:34;7.30;;;6.03;;
22677;SDS011;26259;50.214;18.620;2022-07-18T00:59:00;12.57;;;5.63;;
22677;SDS011;26259;50.214;18.620;2022-07-18T01:01:26;12.13;;;5.97;;
22677;SDS011;26259;50.214;18.620;2022-07-18T01:04:11;8.57;;;5.60;;
22677;SDS011;26259;50.214;18.620;2022-07-18T01:06:38;9.10;;;6.67;;
22677;SDS011;26259;50.214;18.620;2022-07-18T01:09:04;7.33;;;5.73;;
22677;SDS011;26259;50.214;18.620;2022-07-18T01:11:31;9.23;;;5.17;;
22677;SDS011;26259;50.214;18.620;2022-07-18T01:13:57;8.30;;;5.37;;
22677;SDS011;26259;50.214;18.620;2022-07-18T01:16:23;11.73;;;6.20;;
22677;SDS011;26259;50.214;18.620;2022-07-18T01:18:49;7.23;;;6.00;;
22677;SDS011;26259;50.214;18.620;2022-07-18T01:21:16;8.40;;;6.00;;
22677;SDS011;26259;50.214;18.620;2022-07-18T01:23:42;7.87;;;5.87;;
22677;SDS011;26259;50.214;18.620;2022-07-18T01:26:08;9.83;;;6.10;;
22677;SDS011;26259;50.214;18.620;2022-07-18T01:28:34;9.80;;;6.10;;
22677;SDS011;26259;50.214;18.620;2022-07-18T01:31:01;7.03;;;5.10;;
22677;SDS011;26259;50.214;18.620;2022-07-18T01:33:26;8.80;;;6.27;;
22677;SDS011;26259;50.214;18.620;2022-07-18T01:35:52;7.77;;;5.97;;
22677;SDS011;26259;50.214;18.620;2022-07-18T01:38:17;9.10;;;6.07;;
22677;SDS011;26259;50.214;18.620;2022-07-18T01:40:44;7.83;;;5.43;;
22677;SDS011;26259;50.214;18.620;2022-07-18T01:43:10;9.20;;;5.43;;
22677;SDS011;26259;50.214;18.620;2022-07-18T01:45:36;6.23;;;5.33;;
22677;SDS011;26259;50.214;18.620;2022-07-18T01:48:02;7.23;;;5.00;;
22677;SDS011;26259;50.214;18.620;2022-07-18T01:50:28;6.00;;;4.47;;
22677;SDS011;26259;50.214;18.620;2022-07-18T01:52:53;7.03;;;5.10;;
22677;SDS011;26259;50.214;18.620;2022-07-18T01:55:19;7.23;;;5.20;;
22677;SDS011;26259;50.214;18.620;2022-07-18T01:57:45;6.97;;;5.20;;
22677;SDS011;26259;50.214;18.620;2022-07-18T02:00:11;8.00;;;5.30;;
22677;SDS011;26259;50.214;18.620;2022-07-18T02:02:37;8.47;;;4.93;;
22677;SDS011;26259;50.214;18.620;2022-07-18T02:05:04;7.57;;;5.50;;
22677;SDS011;26259;50.214;18.620;2022-07-18T02:07:32;5.53;;;4.93;;
22677;SDS011;26259;50.214;18.620;2022-07-18T02:10:00;7.27;;;5.43;;
22677;SDS011;26259;50.214;18.620;2022-07-18T02:12:26;6.23;;;5.23;;
22677;SDS011;26259;50.214;18.620;2022-07-18T02:14:51;10.37;;;5.53;;
22677;SDS011;26259;50.214;18.620;2022-07-18T02:17:17;7.43;;;5.07;;
22677;SDS011;26259;50.214;18.620;2022-07-18T02:19:44;6.50;;;5.87;;
22677;SDS011;26259;50.214;18.620;2022-07-18T02:22:10;6.43;;;5.03;;
22677;SDS011;26259;50.214;18.620;2022-07-18T02:24:35;9.87;;;5.70;;
22677;SDS011;26259;50.214;18.620;2022-07-18T02:27:01;10.47;;;5.80;;
22677;SDS011;26259;50.214;18.620;2022-07-18T02:29:27;7.63;;;5.37;;
22677;SDS011;26259;50.214;18.620;2022-07-18T02:31:53;9.60;;;5.63;;
22677;SDS011;26259;50.214;18.620;2022-07-18T02:34:19;6.43;;;5.63;;
22677;SDS011;26259;50.214;18.620;2022-07-18T02:36:44;9.10;;;5.90;;
22677;SDS011;26259;50.214;18.620;2022-07-18T02:39:10;7.57;;;5.33;;
22677;SDS011;26259;50.214;18.620;2022-07-18T02:41:36;8.07;;;5.83;;
22677;SDS011;26259;50.214;18.620;2022-07-18T02:44:02;6.30;;;5.30;;
22677;SDS011;26259;50.214;18.620;2022-07-18T02:46:28;8.33;;;5.53;;
22677;SDS011;26259;50.214;18.620;2022-07-18T02:48:54;7.90;;;5.50;;
22677;SDS011;26259;50.214;18.620;2022-07-18T02:51:19;7.73;;;5.53;;
22677;SDS011;26259;50.214;18.620;2022-07-18T02:53:45;11.13;;;6.07;;
22677;SDS011;26259;50.214;18.620;2022-07-18T02:56:10;8.80;;;6.07;;
22677;SDS011;26259;50.214;18.620;2022-07-18T02:58:36;8.90;;;5.67;;
22677;SDS011;26259;50.214;18.620;2022-07-18T03:01:02;9.07;;;5.80;;
22677;SDS011;26259;50.214;18.620;2022-07-18T03:03:27;6.37;;;5.33;;
22677;SDS011;26259;50.214;18.620;2022-07-18T03:05:53;6.60;;;5.60;;
22677;SDS011;26259;50.214;18.620;2022-07-18T03:08:19;7.50;;;5.37;;
22677;SDS011;26259;50.214;18.620;2022-07-18T03:10:44;12.53;;;5.80;;
22677;SDS011;26259;50.214;18.620;2022-07-18T03:13:10;8.03;;;6.23;;
22677;SDS011;26259;50.214;18.620;2022-07-18T03:15:37;8.03;;;5.87;;
22677;SDS011;26259;50.214;18.620;2022-07-18T03:18:03;9.93;;;6.83;;
22677;SDS011;26259;50.214;18.620;2022-07-18T03:20:29;9.20;;;6.33;;
22677;SDS011;26259;50.214;18.620;2022-07-18T03:22:55;8.27;;;6.50;;
22677;SDS011;26259;50.214;18.620;2022-07-18T03:25:20;8.43;;;6.10;;
22677;SDS011;26259;50.214;18.620;2022-07-18T03:27:46;8.23;;;6.23;;
22677;SDS011;26259;50.214;18.620;2022-07-18T03:30:12;9.37;;;5.87;;
22677;SDS011;26259;50.214;18.620;2022-07-18T03:32:37;7.30;;;5.57;;
22677;SDS011;26259;50.214;18.620;2022-07-18T03:35:03;8.00;;;5.83;;
22677;SDS011;26259;50.214;18.620;2022-07-18T03:37:29;7.63;;;5.90;;
22677;SDS011;26259;50.214;18.620;2022-07-18T03:39:54;14.17;;;5.77;;
22677;SDS011;26259;50.214;18.620;2022-07-18T03:42:20;12.40;;;5.60;;
22677;SDS011;26259;50.214;18.620;2022-07-18T03:44:45;8.90;;;5.40;;
22677;SDS011;26259;50.214;18.620;2022-07-18T03:47:11;8.77;;;6.00;;
22677;SDS011;26259;50.214;18.620;2022-07-18T03:49:36;13.03;;;5.13;;
22677;SDS011;26259;50.214;18.620;2022-07-18T03:52:02;9.50;;;5.33;;
22677;SDS011;26259;50.214;18.620;2022-07-18T03:54:28;6.50;;;4.47;;
22677;SDS011;26259;50.214;18.620;2022-07-18T03:56:54;7.20;;;4.60;;
22677;SDS011;26259;50.214;18.620;2022-07-18T03:59:19;6.73;;;4.27;;
22677;SDS011;26259;50.214;18.620;2022-07-18T04:01:45;6.53;;;3.67;;
22677;SDS011;26259;50.214;18.620;2022-07-18T04:04:11;5.23;;;3.50;;
22677;SDS011;26259;50.214;18.620;2022-07-18T04:06:36;6.50;;;3.93;;
22677;SDS011;26259;50.214;18.620;2022-07-18T04:09:02;5.47;;;3.40;;
22677;SDS011;26259;50.214;18.620;2022-07-18T04:11:28;4.97;;;3.60;;
22677;SDS011;26259;50.214;18.620;2022-07-18T04:13:54;6.20;;;4.00;;
22677;SDS011;26259;50.214;18.620;2022-07-18T04:16:20;3.93;;;3.07;;
22677;SDS011;26259;50.214;18.620;2022-07-18T04:18:46;6.33;;;3.80;;
22677;SDS011;26259;50.214;18.620;2022-07-18T04:21:12;4.00;;;3.33;;
22677;SDS011;26259;50.214;18.620;2022-07-18T04:23:38;4.70;;;3.23;;
22677;SDS011;26259;50.214;18.620;2022-07-18T04:26:04;4.97;;;3.57;;
22677;SDS011;26259;50.214;18.620;2022-07-18T04:28:30;5.83;;;3.47;;
22677;SDS011;26259;50.214;18.620;2022-07-18T04:30:55;5.47;;;3.40;;
22677;SDS011;26259;50.214;18.620;2022-07-18T04:33:21;3.80;;;3.23;;
22677;SDS011;26259;50.214;18.620;2022-07-18T04:35:48;6.90;;;3.63;;
22677;SDS011;26259;50.214;18.620;2022-07-18T04:38:14;6.07;;;3.50;;
22677;SDS011;26259;50.214;18.620;2022-07-18T04:40:40;7.77;;;4.07;;
22677;SDS011;26259;50.214;18.620;2022-07-18T04:43:06;7.50;;;3.87;;
22677;SDS011;26259;50.214;18.620;2022-07-18T04:45:33;9.13;;;3.50;;
22677;SDS011;26259;50.214;18.620;2022-07-18T04:48:01;8.27;;;3.87;;
22677;SDS011;26259;50.214;18.620;2022-07-18T04:50:30;9.23;;;4.13;;
22677;SDS011;26259;50.214;18.620;2022-07-18T04:52:56;10.33;;;4.80;;
22677;SDS011;26259;50.214;18.620;2022-07-18T04:55:23;6.27;;;4.20;;
22677;SDS011;26259;50.214;18.620;2022-07-18T04:57:50;7.57;;;4.00;;
22677;SDS011;26259;50.214;18.620;2022-07-18T05:00:17;7.50;;;4.83;;
22677;SDS011;26259;50.214;18.620;2022-07-18T05:02:45;8.27;;;4.20;;
22677;SDS011;26259;50.214;18.620;2022-07-18T05:05:13;7.50;;;4.40;;
22677;SDS011;26259;50.214;18.620;2022-07-18T05:07:41;8.17;;;4.57;;
22677;SDS011;26259;50.214;18.620;2022-07-18T05:10:08;7.50;;;4.30;;
22677;SDS011;26259;50.214;18.620;2022-07-18T05:12:35;9.57;;;4.57;;
22677;SDS011;26259;50.214;18.620;2022-07-18T05:15:02;8.03;;;4.20;;
22677;SDS011;26259;50.214;18.620;2022-07-18T05:17:30;5.87;;;3.93;;
22677;SDS011;26259;50.214;18.620;2022-07-18T05:19:56;9.27;;;4.50;;
22677;SDS011;26259;50.214;18.620;2022-07-18T05:22:21;11.83;;;4.40;;
22677;SDS011;26259;50.214;18.620;2022-07-18T05:24:47;7.10;;;3.50;;
22677;SDS011;26259;50.214;18.620;2022-07-18T05:27:14;9.00;;;3.80;;
22677;SDS011;26259;50.214;18.620;2022-07-18T05:29:40;10.20;;;4.13;;
22677;SDS011;26259;50.214;18.620;2022-07-18T05:32:05;7.60;;;3.63;;
22677;SDS011;26259;50.214;18.620;2022-07-18T05:34:32;7.73;;;3.57;;
22677;SDS011;26259;50.214;18.620;2022-07-18T05:36:58;7.67;;;3.90;;
22677;SDS011;26259;50.214;18.620;2022-07-18T05:39:24;5.87;;;3.10;;
22677;SDS011;26259;50.214;18.620;2022-07-18T05:41:50;6.03;;;3.07;;
22677;SDS011;26259;50.214;18.620;2022-07-18T05:44:15;12.40;;;3.43;;
22677;SDS011;26259;50.214;18.620;2022-07-18T05:46:41;7.57;;;3.78;;
22677;SDS011;26259;50.214;18.620;2022-07-18T05:49:06;12.07;;;3.23;;
22677;SDS011;26259;50.214;18.620;2022-07-18T05:51:32;5.30;;;2.90;;
22677;SDS011;26259;50.214;18.620;2022-07-18T05:53:57;7.10;;;3.00;;
22677;SDS011;26259;50.214;18.620;2022-07-18T05:56:23;10.83;;;3.27;;
22677;SDS011;26259;50.214;18.620;2022-07-18T05:58:48;8.70;;;2.90;;
22677;SDS011;26259;50.214;18.620;2022-07-18T06:01:14;7.57;;;2.77;;
22677;SDS011;26259;50.214;18.620;2022-07-18T06:03:44;5.43;;;2.70;;
22677;SDS011;26259;50.214;18.620;2022-07-18T06:06:11;4.53;;;2.67;;
22677;SDS011;26259;50.214;18.620;2022-07-18T06:08:38;8.03;;;2.60;;
22677;SDS011;26259;50.214;18.620;2022-07-18T06:11:03;6.47;;;2.97;;
22677;SDS011;26259;50.214;18.620;2022-07-18T06:13:31;7.30;;;3.43;;
22677;SDS011;26259;50.214;18.620;2022-07-18T06:15:57;6.60;;;2.50;;
22677;SDS011;26259;50.214;18.620;2022-07-18T06:18:23;6.07;;;2.90;;
22677;SDS011;26259;50.214;18.620;2022-07-18T06:20:48;8.70;;;3.03;;
22677;SDS011;26259;50.214;18.620;2022-07-18T06:23:14;9.17;;;2.50;;
22677;SDS011;26259;50.214;18.620;2022-07-18T06:25:40;6.30;;;2.57;;
22677;SDS011;26259;50.214;18.620;2022-07-18T06:28:06;4.87;;;2.50;;
22677;SDS011;26259;50.214;18.620;2022-07-18T06:30:31;3.97;;;2.23;;
22677;SDS011;26259;50.214;18.620;2022-07-18T06:32:57;3.80;;;2.30;;
22677;SDS011;26259;50.214;18.620;2022-07-18T06:35:22;8.90;;;2.40;;
22677;SDS011;26259;50.214;18.620;2022-07-18T06:37:48;4.73;;;1.80;;
22677;SDS011;26259;50.214;18.620;2022-07-18T06:40:13;8.00;;;2.30;;
22677;SDS011;26259;50.214;18.620;2022-07-18T06:42:39;5.33;;;2.27;;
22677;SDS011;26259;50.214;18.620;2022-07-18T06:45:05;5.00;;;2.23;;
22677;SDS011;26259;50.214;18.620;2022-07-18T06:47:31;7.10;;;2.20;;
22677;SDS011;26259;50.214;18.620;2022-07-18T06:49:57;7.03;;;2.47;;
22677;SDS011;26259;50.214;18.620;2022-07-18T06:52:22;5.87;;;3.47;;
22677;SDS011;26259;50.214;18.620;2022-07-18T06:54:48;7.27;;;2.03;;
22677;SDS011;26259;50.214;18.620;2022-07-18T06:57:13;3.17;;;1.67;;
22677;SDS011;26259;50.214;18.620;2022-07-18T06:59:39;4.90;;;2.00;;
22677;SDS011;26259;50.214;18.620;2022-07-18T07:02:05;8.43;;;1.97;;
22677;SDS011;26259;50.214;18.620;2022-07-18T07:04:30;4.93;;;1.77;;
22677;SDS011;26259;50.214;18.620;2022-07-18T07:06:56;8.57;;;2.43;;
22677;SDS011;26259;50.214;18.620;2022-07-18T07:09:21;7.63;;;1.83;;
22677;SDS011;26259;50.214;18.620;2022-07-18T07:11:47;6.43;;;2.10;;
22677;SDS011;26259;50.214;18.620;2022-07-18T07:14:13;5.33;;;1.70;;
22677;SDS011;26259;50.214;18.620;2022-07-18T07:16:38;4.30;;;1.60;;
22677;SDS011;26259;50.214;18.620;2022-07-18T07:19:04;4.10;;;1.57;;
22677;SDS011;26259;50.214;18.620;2022-07-18T07:21:29;8.63;;;1.50;;
22677;SDS011;26259;50.214;18.620;2022-07-18T07:23:55;3.63;;;1.40;;
22677;SDS011;26259;50.214;18.620;2022-07-18T07:26:21;3.63;;;1.63;;
22677;SDS011;26259;50.214;18.620;2022-07-18T07:28:46;3.77;;;1.40;;
22677;SDS011;26259;50.214;18.620;2022-07-18T07:31:12;3.50;;;1.47;;
22677;SDS011;26259;50.214;18.620;2022-07-18T07:33:37;3.17;;;1.17;;
22677;SDS011;26259;50.214;18.620;2022-07-18T07:36:03;3.83;;;1.30;;
22677;SDS011;26259;50.214;18.620;2022-07-18T07:38:29;3.37;;;1.37;;
22677;SDS011;26259;50.214;18.620;2022-07-18T07:40:55;2.90;;;1.07;;
22677;SDS011;26259;50.214;18.620;2022-07-18T07:43:21;3.63;;;1.13;;
22677;SDS011;26259;50.214;18.620;2022-07-18T07:45:47;7.07;;;1.30;;
22677;SDS011;26259;50.214;18.620;2022-07-18T07:48:15;5.33;;;1.30;;
22677;SDS011;26259;50.214;18.620;2022-07-18T07:50:41;4.47;;;1.20;;
22677;SDS011;26259;50.214;18.620;2022-07-18T07:53:07;3.37;;;1.10;;
22677;SDS011;26259;50.214;18.620;2022-07-18T07:55:32;2.90;;;1.10;;
22677;SDS011;26259;50.214;18.620;2022-07-18T07:57:58;3.70;;;1.53;;
22677;SDS011;26259;50.214;18.620;2022-07-18T08:00:24;3.37;;;1.17;;
22677;SDS011;26259;50.214;18.620;2022-07-18T08:02:50;5.30;;;1.30;;
22677;SDS011;26259;50.214;18.620;2022-07-18T08:05:17;3.23;;;1.30;;
22677;SDS011;26259;50.214;18.620;2022-07-18T08:07:43;6.23;;;1.30;;
22677;SDS011;26259;50.214;18.620;2022-07-18T08:10:09;5.87;;;1.50;;
22677;SDS011;26259;50.214;18.620;2022-07-18T08:12:34;3.10;;;1.20;;
22677;SDS011;26259;50.214;18.620;2022-07-18T08:15:00;7.23;;;1.50;;
22677;SDS011;26259;50.214;18.620;2022-07-18T08:17:26;3.77;;;1.27;;
22677;SDS011;26259;50.214;18.620;2022-07-18T08:19:51;11.73;;;2.67;;
22677;SDS011;26259;50.214;18.620;2022-07-18T08:22:17;5.03;;;1.40;;
22677;SDS011;26259;50.214;18.620;2022-07-18T08:24:43;1.37;;;0.77;;
22677;SDS011;26259;50.214;18.620;2022-07-18T08:27:08;6.37;;;1.10;;
22677;SDS011;26259;50.214;18.620;2022-07-18T08:29:34;3.73;;;0.90;;
22677;SDS011;26259;50.214;18.620;2022-07-18T08:32:00;3.67;;;1.07;;
22677;SDS011;26259;50.214;18.620;2022-07-18T08:34:26;8.77;;;1.53;;
22677;SDS011;26259;50.214;18.620;2022-07-18T08:36:51;6.83;;;1.90;;
22677;SDS011;26259;50.214;18.620;2022-07-18T08:39:17;7.80;;;1.40;;
22677;SDS011;26259;50.214;18.620;2022-07-18T08:41:43;3.43;;;1.00;;
22677;SDS011;26259;50.214;18.620;2022-07-18T08:44:12;2.93;;;1.00;;
22677;SDS011;26259;50.214;18.620;2022-07-18T08:46:39;3.93;;;1.40;;
22677;SDS011;26259;50.214;18.620;2022-07-18T08:49:08;3.43;;;1.33;;
22677;SDS011;26259;50.214;18.620;2022-07-18T08:51:34;2.47;;;0.93;;
22677;SDS011;26259;50.214;18.620;2022-07-18T08:54:01;3.97;;;1.20;;
22677;SDS011;26259;50.214;18.620;2022-07-18T08:56:28;6.00;;;1.20;;
22677;SDS011;26259;50.214;18.620;2022-07-18T08:58:54;2.30;;;1.17;;
22677;SDS011;26259;50.214;18.620;2022-07-18T09:01:19;4.23;;;1.17;;
22677;SDS011;26259;50.214;18.620;2022-07-18T09:03:45;7.33;;;1.33;;
22677;SDS011;26259;50.214;18.620;2022-07-18T09:06:48;4.47;;;1.13;;
22677;SDS011;26259;50.214;18.620;2022-07-18T09:09:15;3.27;;;0.90;;
22677;SDS011;26259;50.214;18.620;2022-07-18T09:11:52;3.23;;;1.30;;
22677;SDS011;26259;50.214;18.620;2022-07-18T09:14:27;6.10;;;1.20;;
22677;SDS011;26259;50.214;18.620;2022-07-18T09:16:59;4.50;;;1.20;;
22677;SDS011;26259;50.214;18.620;2022-07-18T09:19:31;4.80;;;1.43;;
22677;SDS011;26259;50.214;18.620;2022-07-18T09:24:49;3.57;;;1.30;;
22677;SDS011;26259;50.214;18.620;2022-07-18T09:32:43;5.53;;;1.30;;
22677;SDS011;26259;50.214;18.620;2022-07-18T09:35:11;3.77;;;1.00;;
22677;SDS011;26259;50.214;18.620;2022-07-18T09:37:39;3.87;;;1.13;;
22677;SDS011;26259;50.214;18.620;2022-07-18T09:40:16;3.17;;;0.70;;
22677;SDS011;26259;50.214;18.620;2022-07-18T09:42:43;5.87;;;1.30;;
22677;SDS011;26259;50.214;18.620;2022-07-18T09:45:13;4.67;;;0.80;;
22677;SDS011;26259;50.214;18.620;2022-07-18T09:47:48;5.53;;;1.27;;
22677;SDS011;26259;50.214;18.620;2022-07-18T09:50:29;3.43;;;1.00;;
22677;SDS011;26259;50.214;18.620;2022-07-18T09:55:31;3.80;;;1.17;;
22677;SDS011;26259;50.214;18.620;2022-07-18T09:57:58;5.03;;;1.00;;
22677;SDS011;26259;50.214;18.620;2022-07-18T10:00:29;5.33;;;0.90;;
22677;SDS011;26259;50.214;18.620;2022-07-18T10:02:57;3.37;;;1.77;;
22677;SDS011;26259;50.214;18.620;2022-07-18T10:05:24;4.13;;;1.20;;
22677;SDS011;26259;50.214;18.620;2022-07-18T10:07:54;5.23;;;1.40;;
22677;SDS011;26259;50.214;18.620;2022-07-18T10:10:21;2.73;;;1.10;;
22677;SDS011;26259;50.214;18.620;2022-07-18T10:12:50;2.77;;;1.20;;
22677;SDS011;26259;50.214;18.620;2022-07-18T10:15:17;7.30;;;1.70;;
22677;SDS011;26259;50.214;18.620;2022-07-18T10:17:44;4.07;;;1.10;;
22677;SDS011;26259;50.214;18.620;2022-07-18T10:20:10;7.43;;;1.17;;
22677;SDS011;26259;50.214;18.620;2022-07-18T10:22:37;5.50;;;1.13;;
22677;SDS011;26259;50.214;18.620;2022-07-18T10:25:07;3.70;;;1.20;;
22677;SDS011;26259;50.214;18.620;2022-07-18T10:27:48;2.83;;;1.03;;
22677;SDS011;26259;50.214;18.620;2022-07-18T10:30:28;3.10;;;0.90;;
22677;SDS011;26259;50.214;18.620;2022-07-18T10:32:55;5.50;;;1.53;;
22677;SDS011;26259;50.214;18.620;2022-07-18T10:35:57;5.47;;;1.53;;
22677;SDS011;26259;50.214;18.620;2022-07-18T10:38:22;4.70;;;1.00;;
22677;SDS011;26259;50.214;18.620;2022-07-18T10:41:00;5.93;;;1.60;;
22677;SDS011;26259;50.214;18.620;2022-07-18T10:43:32;6.40;;;1.93;;
22677;SDS011;26259;50.214;18.620;2022-07-18T10:45:59;3.77;;;1.27;;
22677;SDS011;26259;50.214;18.620;2022-07-18T10:51:01;2.97;;;1.00;;
22677;SDS011;26259;50.214;18.620;2022-07-18T10:59:05;4.53;;;1.07;;
22677;SDS011;26259;50.214;18.620;2022-07-18T11:01:54;6.87;;;1.30;;
22677;SDS011;26259;50.214;18.620;2022-07-18T11:04:33;5.40;;;1.40;;
22677;SDS011;26259;50.214;18.620;2022-07-18T11:07:04;7.83;;;1.53;;
22677;SDS011;26259;50.214;18.620;2022-07-18T11:09:43;4.93;;;1.23;;
22677;SDS011;26259;50.214;18.620;2022-07-18T11:22:52;2.03;;;1.13;;
22677;SDS011;26259;50.214;18.620;2022-07-18T11:25:18;1.87;;;1.17;;
22677;SDS011;26259;50.214;18.620;2022-07-18T11:27:44;2.43;;;1.30;;
22677;SDS011;26259;50.214;18.620;2022-07-18T11:30:16;4.33;;;1.40;;
22677;SDS011;26259;50.214;18.620;2022-07-18T11:32:46;2.70;;;1.07;;
22677;SDS011;26259;50.214;18.620;2022-07-18T11:35:12;4.47;;;1.25;;
22677;SDS011;26259;50.214;18.620;2022-07-18T11:37:39;4.33;;;1.30;;
22677;SDS011;26259;50.214;18.620;2022-07-18T11:40:13;3.03;;;1.33;;
22677;SDS011;26259;50.214;18.620;2022-07-18T11:42:39;3.83;;;0.93;;
22677;SDS011;26259;50.214;18.620;2022-07-18T11:45:06;2.33;;;1.10;;
22677;SDS011;26259;50.214;18.620;2022-07-18T11:47:39;3.47;;;1.33;;
22677;SDS011;26259;50.214;18.620;2022-07-18T11:50:12;3.07;;;1.07;;
22677;SDS011;26259;50.214;18.620;2022-07-18T11:52:38;3.85;;;1.20;;
22677;SDS011;26259;50.214;18.620;2022-07-18T11:55:05;1.77;;;1.10;;
22677;SDS011;26259;50.214;18.620;2022-07-18T11:57:32;5.30;;;1.50;;
22677;SDS011;26259;50.214;18.620;2022-07-18T11:59:59;3.63;;;1.40;;
22677;SDS011;26259;50.214;18.620;2022-07-18T12:05:29;5.00;;;1.20;;
22677;SDS011;26259;50.214;18.620;2022-07-18T12:11:17;6.75;;;1.13;;
22677;SDS011;26259;50.214;18.620;2022-07-18T12:14:00;6.50;;;1.23;;
22677;SDS011;26259;50.214;18.620;2022-07-18T12:16:40;2.97;;;1.00;;
22677;SDS011;26259;50.214;18.620;2022-07-18T12:26:44;5.53;;;1.40;;
22677;SDS011;26259;50.214;18.620;2022-07-18T12:29:10;1.63;;;1.03;;
22677;SDS011;26259;50.214;18.620;2022-07-18T12:31:37;3.42;;;1.30;;
22677;SDS011;26259;50.214;18.620;2022-07-18T12:34:11;2.42;;;0.93;;
22677;SDS011;26259;50.214;18.620;2022-07-18T12:36:54;5.28;;;1.30;;
22677;SDS011;26259;50.214;18.620;2022-07-18T12:39:25;2.20;;;1.20;;
22677;SDS011;26259;50.214;18.620;2022-07-18T12:42:00;3.45;;;1.25;;
22677;SDS011;26259;50.214;18.620;2022-07-18T12:44:26;3.67;;;1.33;;
22677;SDS011;26259;50.214;18.620;2022-07-18T12:46:53;10.35;;;1.30;;
22677;SDS011;26259;50.214;18.620;2022-07-18T12:49:19;4.65;;;1.20;;
22677;SDS011;26259;50.214;18.620;2022-07-18T12:51:46;3.28;;;0.82;;
22677;SDS011;26259;50.214;18.620;2022-07-18T12:54:12;5.25;;;1.67;;
22677;SDS011;26259;50.214;18.620;2022-07-18T12:56:38;3.80;;;1.40;;
22677;SDS011;26259;50.214;18.620;2022-07-18T12:59:04;4.63;;;1.73;;
22677;SDS011;26259;50.214;18.620;2022-07-18T13:01:30;4.37;;;1.30;;
22677;SDS011;26259;50.214;18.620;2022-07-18T13:03:56;4.15;;;1.20;;
22677;SDS011;26259;50.214;18.620;2022-07-18T13:06:22;2.63;;;1.27;;
22677;SDS011;26259;50.214;18.620;2022-07-18T13:08:47;4.03;;;1.27;;
22677;SDS011;26259;50.214;18.620;2022-07-18T13:11:13;2.95;;;1.38;;
22677;SDS011;26259;50.214;18.620;2022-07-18T13:13:39;2.38;;;1.13;;
22677;SDS011;26259;50.214;18.620;2022-07-18T13:16:04;4.45;;;1.00;;
22677;SDS011;26259;50.214;18.620;2022-07-18T13:18:30;4.43;;;1.05;;
22677;SDS011;26259;50.214;18.620;2022-07-18T13:20:56;3.72;;;1.23;;
22677;SDS011;26259;50.214;18.620;2022-07-18T13:23:21;3.22;;;1.27;;
22677;SDS011;26259;50.214;18.620;2022-07-18T13:25:47;3.92;;;1.30;;
22677;SDS011;26259;50.214;18.620;2022-07-18T13:28:12;4.63;;;1.08;;
22677;SDS011;26259;50.214;18.620;2022-07-18T13:30:38;3.65;;;1.10;;
22677;SDS011;26259;50.214;18.620;2022-07-18T13:33:04;3.15;;;1.25;;
22677;SDS011;26259;50.214;18.620;2022-07-18T13:35:30;5.93;;;1.63;;
22677;SDS011;26259;50.214;18.620;2022-07-18T13:37:55;5.20;;;1.13;;
22677;SDS011;26259;50.214;18.620;2022-07-18T13:40:21;3.53;;;1.13;;
22677;SDS011;26259;50.214;18.620;2022-07-18T13:42:47;7.00;;;1.27;;
22677;SDS011;26259;50.214;18.620;2022-07-18T13:45:12;2.05;;;1.15;;
22677;SDS011;26259;50.214;18.620;2022-07-18T13:47:39;2.28;;;1.08;;
22677;SDS011;26259;50.214;18.620;2022-07-18T13:50:06;4.15;;;1.33;;
22677;SDS011;26259;50.214;18.620;2022-07-18T13:52:33;2.08;;;1.10;;
22677;SDS011;26259;50.214;18.620;2022-07-18T13:54:59;2.65;;;1.13;;
22677;SDS011;26259;50.214;18.620;2022-07-18T13:57:24;3.67;;;1.10;;
22677;SDS011;26259;50.214;18.620;2022-07-18T13:59:50;2.35;;;1.33;;
22677;SDS011;26259;50.214;18.620;2022-07-18T14:02:16;3.15;;;1.20;;
22677;SDS011;26259;50.214;18.620;2022-07-18T14:04:43;2.55;;;1.20;;
22677;SDS011;26259;50.214;18.620;2022-07-18T14:07:09;4.65;;;1.33;;
22677;SDS011;26259;50.214;18.620;2022-07-18T14:09:36;4.88;;;1.27;;
22677;SDS011;26259;50.214;18.620;2022-07-18T14:12:02;5.80;;;1.38;;
22677;SDS011;26259;50.214;18.620;2022-07-18T14:14:28;5.00;;;1.13;;
22677;SDS011;26259;50.214;18.620;2022-07-18T14:16:54;2.25;;;1.10;;
22677;SDS011;26259;50.214;18.620;2022-07-18T14:19:19;3.65;;;1.05;;
22677;SDS011;26259;50.214;18.620;2022-07-18T14:21:45;5.55;;;1.40;;
22677;SDS011;26259;50.214;18.620;2022-07-18T14:24:11;3.22;;;1.35;;
22677;SDS011;26259;50.214;18.620;2022-07-18T14:26:36;2.22;;;1.10;;
22677;SDS011;26259;50.214;18.620;2022-07-18T14:29:05;1.38;;;1.02;;
22677;SDS011;26259;50.214;18.620;2022-07-18T14:31:30;2.88;;;1.30;;
22677;SDS011;26259;50.214;18.620;2022-07-18T14:33:56;2.22;;;1.27;;
22677;SDS011;26259;50.214;18.620;2022-07-18T14:36:21;4.10;;;1.25;;
22677;SDS011;26259;50.214;18.620;2022-07-18T14:38:47;5.88;;;1.90;;
22677;SDS011;26259;50.214;18.620;2022-07-18T14:41:13;2.40;;;0.95;;
22677;SDS011;26259;50.214;18.620;2022-07-18T14:43:38;8.60;;;1.50;;
22677;SDS011;26259;50.214;18.620;2022-07-18T14:46:04;5.78;;;1.20;;
22677;SDS011;26259;50.214;18.620;2022-07-18T14:48:30;4.03;;;1.35;;
22677;SDS011;26259;50.214;18.620;2022-07-18T14:50:56;4.63;;;1.30;;
22677;SDS011;26259;50.214;18.620;2022-07-18T14:53:21;4.35;;;1.50;;
22677;SDS011;26259;50.214;18.620;2022-07-18T14:55:47;2.85;;;1.42;;
22677;SDS011;26259;50.214;18.620;2022-07-18T14:58:12;5.80;;;1.60;;
22677;SDS011;26259;50.214;18.620;2022-07-18T15:00:38;5.30;;;1.52;;
22677;SDS011;26259;50.214;18.620;2022-07-18T15:03:04;8.43;;;2.08;;
22677;SDS011;26259;50.214;18.620;2022-07-18T15:05:29;4.60;;;1.90;;
22677;SDS011;26259;50.214;18.620;2022-07-18T15:07:55;2.97;;;1.65;;
22677;SDS011;26259;50.214;18.620;2022-07-18T15:10:20;2.15;;;1.25;;
22677;SDS011;26259;50.214;18.620;2022-07-18T15:12:46;3.22;;;1.85;;
22677;SDS011;26259;50.214;18.620;2022-07-18T15:15:12;6.75;;;1.65;;